Time;durP1;ratioP1;P1;durP2;ratioP2;P2;SDS_P1;SDS_P2;PMS_P1;PMS_P2;Temp;Humidity;BMP_temperature;BMP_pressure;BME280_temperature;BME280_humidity;BME280_pressure;Samples;Min_cycle;Max_cycle;Signal;HPM_P1;HPM_P2
2023/08/07 05:26:56;;;;;;;6.20;1.90;;;;;;;16.38;62.77;100431.41;4807877;29;20238;-71
2023/08/07 05:29:33;;;;;;;7.63;2.50;;;;;;;16.38;62.28;100428.72;4797303;29;20233;-69
2023/08/07 05:32:06;;;;;;;8.03;2.80;;;;;;;16.45;61.87;100440.34;4796645;29;20222;-69
2023/08/07 05:34:35;;;;;;;5.90;2.17;;;;;;;16.46;62.02;100442.00;4799498;29;20300;-69
2023/08/07 05:37:08;;;;;;;7.27;2.37;;;;;;;16.50;62.08;100446.81;4821798;29;20210;-70
2023/08/07 05:39:39;;;;;;;6.40;2.33;;;;;;;16.55;61.91;100439.03;4855318;29;21915;-71
2023/08/07 05:42:10;;;;;;;8.20;2.37;;;;;;;16.57;61.69;100446.88;4855889;29;20302;-70
2023/08/07 05:45:00;;;;;;;10.03;1.90;;;;;;;16.59;61.71;100455.56;4853031;29;20975;-70
2023/08/07 05:47:33;;;;;;;3.23;1.43;;;;;;;16.61;61.47;100450.88;4856894;29;20243;-69
2023/08/07 05:50:15;;;;;;;4.20;1.40;;;;;;;16.63;61.70;100451.50;4845376;29;20218;-71
2023/08/07 05:52:47;;;;;;;6.97;2.00;;;;;;;16.70;61.42;100457.78;4848811;29;20218;-68
2023/08/07 05:55:16;;;;;;;5.90;2.07;;;;;;;16.67;61.59;100458.16;4851593;29;20223;-68
2023/08/07 05:57:45;;;;;;;5.03;1.50;;;;;;;16.65;61.80;100446.81;4854007;29;20215;-72
2023/08/07 06:00:19;;;;;;;7.43;1.80;;;;;;;16.65;62.18;100452.16;4852003;29;20219;-70
2023/08/07 06:02:47;;;;;;;4.70;1.43;;;;;;;16.66;62.24;100461.84;4850281;29;21059;-68
2023/08/07 06:05:16;;;;;;;10.17;1.93;;;;;;;16.62;61.80;100460.59;4851048;29;20215;-68
2023/08/07 06:07:51;;;;;;;5.60;2.13;;;;;;;16.62;62.05;100463.25;4852740;29;20243;-72
2023/08/07 06:10:20;;;;;;;3.57;2.00;;;;;;;16.66;62.00;100467.22;4851813;29;20265;-71
2023/08/07 06:12:52;;;;;;;8.90;2.17;;;;;;;16.66;61.76;100472.56;4851111;29;20210;-69
2023/08/07 06:15:21;;;;;;;10.87;2.57;;;;;;;16.65;62.23;100473.56;4854924;29;20207;-70
2023/08/07 06:18:06;;;;;;;6.53;2.00;;;;;;;16.65;61.98;100470.91;4852323;29;20215;-69
2023/08/07 06:20:37;;;;;;;6.70;1.97;;;;;;;16.62;61.69;100482.00;4853968;29;20380;-68
2023/08/07 06:23:28;;;;;;;11.70;2.17;;;;;;;16.59;61.77;100481.50;4853701;29;20223;-71
2023/08/07 06:26:45;;;;;;;7.67;2.57;;;;;;;16.59;61.75;100482.34;4847181;29;20257;-68
2023/08/07 06:29:37;;;;;;;8.13;1.70;;;;;;;16.65;61.84;100489.63;4842803;29;20246;-70
2023/08/07 06:32:07;;;;;;;8.00;2.00;;;;;;;16.68;62.47;100491.94;4836778;29;20199;-69
2023/08/07 06:34:37;;;;;;;6.47;1.83;;;;;;;16.68;63.22;100494.63;4850569;29;20299;-69
2023/08/07 06:37:06;;;;;;;7.53;1.90;;;;;;;16.69;63.31;100496.28;4851825;29;21197;-69
2023/08/07 06:39:34;;;;;;;7.47;1.83;;;;;;;16.73;62.97;100500.25;4853665;29;20303;-69
2023/08/07 06:42:04;;;;;;;5.67;1.83;;;;;;;16.69;62.63;100504.31;4854288;29;20221;-67
2023/08/07 06:44:35;;;;;;;6.37;1.70;;;;;;;16.67;63.32;100509.03;4852528;29;20215;-69
2023/08/07 06:47:11;;;;;;;5.70;2.07;;;;;;;16.65;63.96;100497.66;4850144;29;20237;-67
2023/08/07 06:49:57;;;;;;;6.70;2.50;;;;;;;16.65;64.31;100507.53;4850151;29;20241;-68
2023/08/07 06:52:35;;;;;;;8.10;1.80;;;;;;;16.62;64.29;100508.78;4820352;29;20215;-66
2023/08/07 06:55:17;;;;;;;8.23;2.03;;;;;;;16.62;64.11;100508.78;4850202;29;20225;-70
2023/08/07 06:57:45;;;;;;;7.77;1.90;;;;;;;16.59;63.67;100506.41;4851625;29;20211;-72
2023/08/07 07:00:21;;;;;;;6.63;1.93;;;;;;;16.61;63.76;100512.47;4850959;29;20217;-70
2023/08/07 07:02:49;;;;;;;5.50;2.00;;;;;;;16.63;63.41;100505.06;4850068;29;20253;-69
2023/08/07 07:05:18;;;;;;;6.60;1.97;;;;;;;16.69;63.68;100516.88;4851289;29;20335;-71
2023/08/07 07:07:59;;;;;;;;;;;;;;;;;;;;;
2023/08/07 07:10:28;;;;;;;4.33;2.00;;;;;;;16.68;63.91;100516.06;4853701;29;20259;-68
2023/08/07 07:13:03;;;;;;;7.30;1.90;;;;;;;16.68;64.16;100510.69;4851637;29;20214;-68
2023/08/07 07:15:55;;;;;;;4.30;2.00;;;;;;;16.65;63.49;100524.44;4854711;29;20226;-64
2023/08/07 07:18:24;;;;;;;6.10;1.60;;;;;;;16.63;63.69;100525.63;4852977;29;20282;-67
2023/08/07 07:21:01;;;;;;;6.33;2.20;;;;;;;16.64;63.60;100535.34;4852828;29;20719;-69
2023/08/07 07:23:31;;;;;;;6.83;2.03;;;;;;;16.61;63.26;100536.56;4853730;29;20574;-70
2023/08/07 07:26:00;;;;;;;7.17;1.70;;;;;;;16.62;62.84;100535.53;4854993;29;20219;-70
2023/08/07 07:28:48;;;;;;;5.53;1.73;;;;;;;16.67;63.00;100533.13;4852841;29;20258;-69
2023/08/07 07:31:30;;;;;;;4.53;1.80;;;;;;;16.67;63.12;100548.34;4851727;29;20222;-72
2023/08/07 07:33:59;;;;;;;6.00;1.60;;;;;;;16.69;63.03;100547.16;4853753;29;20207;-71
2023/08/07 07:36:31;;;;;;;6.37;1.50;;;;;;;16.70;62.30;100548.84;4851577;29;20271;-69
2023/08/07 07:39:00;;;;;;;9.00;2.00;;;;;;;16.68;62.35;100556.22;4852914;29;20207;-68
2023/08/07 07:41:37;;;;;;;7.17;2.10;;;;;;;16.73;61.90;100559.16;4854650;29;20677;-71
2023/08/07 07:44:07;;;;;;;6.67;1.83;;;;;;;16.70;61.09;100564.91;4852075;29;20219;-69
2023/08/07 07:46:38;;;;;;;5.23;1.50;;;;;;;16.68;60.71;100564.25;4852481;29;20240;-73
2023/08/07 07:49:13;;;;;;;6.20;1.93;;;;;;;16.68;60.55;100564.25;4852109;29;20210;-72
2023/08/07 07:51:44;;;;;;;6.77;2.23;;;;;;;16.69;60.29;100563.22;4853303;29;20250;-70
2023/08/07 07:54:24;;;;;;;4.77;1.70;;;;;;;16.71;60.24;100563.84;4852763;29;20226;-69
2023/08/07 07:56:55;;;;;;;8.17;1.93;;;;;;;16.67;59.69;100570.63;4854408;29;20242;-70
2023/08/07 08:00:12;;;;;;;6.23;1.47;;;;;;;16.71;60.21;100571.88;4852619;29;20223;-70
2023/08/07 08:02:56;;;;;;;5.93;1.87;;;;;;;16.73;59.80;100569.84;4816188;29;20301;-73
2023/08/07 08:05:31;;;;;;;9.30;1.73;;;;;;;16.76;59.56;100569.50;4852201;29;20306;-72
2023/08/07 08:08:05;;;;;;;6.07;1.73;;;;;;;16.76;59.90;100572.19;4852481;29;20253;-71
2023/08/07 08:14:05;;;;;;;5.33;1.80;;;;;;;16.80;60.45;100584.16;4833828;29;20219;-71
2023/08/07 08:16:34;;;;;;;5.50;1.60;;;;;;;16.82;61.04;100589.34;4851734;29;20872;-74
2023/08/07 08:19:10;;;;;;;6.93;1.57;;;;;;;16.82;61.29;100587.50;4850463;29;20222;-72
2023/08/07 08:21:50;;;;;;;6.33;1.80;;;;;;;16.86;61.00;100593.31;4852675;29;20260;-70
2023/08/07 08:24:37;;;;;;;4.93;1.77;;;;;;;16.91;61.55;100599.78;4838616;29;20214;-71
2023/08/07 08:27:33;;;;;;;10.77;2.43;;;;;;;16.92;60.68;100601.44;4852004;29;20708;-72
2023/08/07 08:30:13;;;;;;;4.53;1.67;;;;;;;16.98;60.55;100607.88;4845295;29;20242;-71
2023/08/07 08:32:49;;;;;;;5.37;1.60;;;;;;;16.97;59.99;100602.75;4850988;29;20223;-70
2023/08/07 08:35:41;;;;;;;5.43;1.67;;;;;;;17.01;59.32;100604.84;4852491;29;20226;-72
2023/08/07 08:38:16;;;;;;;6.93;1.83;;;;;;;17.03;59.10;100621.56;4852701;29;20233;-68
2023/08/07 08:40:48;;;;;;;5.30;1.70;;;;;;;17.07;59.34;100613.97;4852267;29;20739;-70
2023/08/07 08:43:19;;;;;;;11.10;2.00;;;;;;;17.08;58.90;100610.28;4851795;29;20215;-73
2023/08/07 08:45:48;;;;;;;5.47;1.70;;;;;;;17.13;58.69;100615.94;4850031;29;20984;-67
2023/08/07 08:48:23;;;;;;;4.90;1.47;;;;;;;17.17;59.29;100609.16;4853158;29;20298;-71
2023/08/07 08:50:56;;;;;;;8.97;1.97;;;;;;;17.22;58.84;100612.13;4851128;29;20259;-68
2023/08/07 08:53:25;;;;;;;7.13;2.07;;;;;;;17.24;58.73;100615.41;4853951;29;20859;-70
2023/08/07 08:56:06;;;;;;;11.07;2.53;;;;;;;17.25;59.00;100611.72;4853430;29;20784;-72
2023/08/07 08:59:09;;;;;;;4.10;1.83;;;;;;;17.24;59.32;100623.47;4839942;29;20224;-71
2023/08/07 09:01:38;;;;;;;7.23;1.60;;;;;;;17.20;60.50;100620.34;4854140;29;20218;-70
2023/08/07 09:04:13;;;;;;;6.67;2.10;;;;;;;17.15;61.80;100632.66;4850528;29;20222;-71
2023/08/07 09:06:49;;;;;;;10.07;1.83;;;;;;;17.13;62.64;100621.28;4851282;29;20214;-71
2023/08/07 09:09:28;;;;;;;5.83;1.70;;;;;;;17.09;62.50;100625.34;4853661;29;20279;-69
2023/08/07 09:11:59;;;;;;;8.70;1.70;;;;;;;17.10;62.04;100621.66;4852999;29;20301;-71
2023/08/07 09:14:31;;;;;;;10.20;2.10;;;;;;;17.08;63.05;100623.66;4853150;29;21179;-71
2023/08/07 09:17:10;;;;;;;4.73;1.70;;;;;;;17.03;63.38;100629.59;4853795;29;20227;-69
2023/08/07 09:19:39;;;;;;;5.63;1.77;;;;;;;17.03;62.88;100628.78;4853524;29;20214;-71
2023/08/07 09:22:08;;;;;;;4.73;1.67;;;;;;;17.03;63.40;100626.09;4853960;29;20281;-70
2023/08/07 09:24:36;;;;;;;7.80;1.80;;;;;;;17.03;63.92;100623.41;4851367;29;20283;-70
2023/08/07 09:27:10;;;;;;;3.60;1.83;;;;;;;16.98;64.77;100629.31;4853024;29;20889;-67
2023/08/07 09:30:11;;;;;;;6.70;1.90;;;;;;;16.96;63.82;100630.53;4852881;29;20254;-71
2023/08/07 09:32:40;;;;;;;5.57;1.80;;;;;;;16.96;64.42;100636.72;4849701;29;20561;-69
2023/08/07 09:35:10;;;;;;;7.27;2.17;;;;;;;16.97;63.84;100645.59;4856372;29;20585;-68
2023/08/07 09:37:45;;;;;;;8.60;2.20;;;;;;;17.00;63.59;100643.38;4857465;29;20219;-69
2023/08/07 09:40:52;;;;;;;4.40;1.83;;;;;;;17.02;63.15;100651.22;4857052;29;20215;-70
2023/08/07 09:43:24;;;;;;;5.10;2.00;;;;;;;17.03;63.78;100655.56;4801421;29;20224;-68
2023/08/07 09:45:52;;;;;;;5.40;1.50;;;;;;;17.03;63.97;100664.44;4853864;29;20317;-71
2023/08/07 09:48:25;;;;;;;5.07;1.57;;;;;;;17.07;63.43;100664.88;4855651;29;20238;-70
2023/08/07 09:50:55;;;;;;;8.03;1.93;;;;;;;17.06;63.97;100668.59;4855935;29;20313;-71
2023/08/07 09:53:27;;;;;;;6.23;1.60;;;;;;;17.06;64.67;100671.28;4855540;29;20296;-70
2023/08/07 09:55:56;;;;;;;5.63;1.60;;;;;;;17.04;64.12;100674.13;4855987;29;20298;-70
2023/08/07 09:58:26;;;;;;;4.37;1.50;;;;;;;17.06;64.31;100676.63;4855260;29;20238;-69
2023/08/07 10:00:55;;;;;;;6.03;2.07;;;;;;;17.09;65.61;100681.59;4853673;29;20847;-70
2023/08/07 10:03:24;;;;;;;6.40;2.00;;;;;;;17.12;65.63;100686.59;4854832;29;20211;-71
2023/08/07 10:05:52;;;;;;;7.67;1.90;;;;;;;17.09;65.47;100681.59;4855628;29;20807;-70
2023/08/07 10:08:22;;;;;;;5.80;1.63;;;;;;;17.07;64.73;100683.63;4854695;29;20340;-68
2023/08/07 10:10:53;;;;;;;9.53;2.20;;;;;;;17.15;64.83;100680.88;4854611;29;20229;-65
2023/08/07 10:13:23;;;;;;;5.80;2.20;;;;;;;17.16;65.06;100682.53;4853934;29;20243;-70
2023/08/07 10:16:05;;;;;;;6.70;1.90;;;;;;;17.15;65.78;100691.59;4856382;29;20272;-70
2023/08/07 10:18:34;;;;;;;6.37;2.17;;;;;;;17.17;66.37;100689.53;4853918;29;20290;-67
2023/08/07 10:21:06;;;;;;;5.67;2.13;;;;;;;17.14;67.44;100690.78;4855931;29;20219;-68
2023/08/07 10:23:36;;;;;;;5.60;2.20;;;;;;;17.16;66.37;100693.25;4854994;29;20246;-69
2023/08/07 10:26:10;;;;;;;6.13;2.30;;;;;;;17.08;66.95;100690.66;4855673;29;20219;-69
2023/08/07 10:28:41;;;;;;;11.53;2.40;;;;;;;17.02;67.34;100699.44;4854092;29;20312;-70
2023/08/07 10:31:11;;;;;;;7.47;1.93;;;;;;;16.95;67.36;100696.69;4856691;29;20276;-66
2023/08/07 10:33:40;;;;;;;4.57;2.00;;;;;;;16.95;69.53;100695.84;4854904;29;20215;-67
2023/08/07 10:36:12;;;;;;;4.53;2.13;;;;;;;16.92;72.27;100697.88;4855789;29;20538;-67
2023/08/07 10:38:42;;;;;;;6.93;2.20;;;;;;;16.86;74.00;100698.59;4853122;29;20310;-66
2023/08/07 10:41:15;;;;;;;6.13;2.17;;;;;;;16.83;72.90;100700.81;4853074;29;20843;-69
2023/08/07 10:43:44;;;;;;;6.27;2.60;;;;;;;16.79;76.56;100696.84;4850958;29;20306;-68
2023/08/07 10:46:13;;;;;;;5.37;2.23;;;;;;;16.69;77.00;100696.28;4851345;29;20211;-68
2023/08/07 10:48:43;;;;;;;9.03;2.40;;;;;;;16.67;77.19;100703.66;4850011;29;20353;-64
2023/08/07 10:51:14;;;;;;;9.80;2.27;;;;;;;16.70;77.65;100704.13;4852775;29;20721;-68
2023/08/07 10:53:45;;;;;;;6.27;2.50;;;;;;;16.63;77.73;100697.81;4853300;29;20217;-72
2023/08/07 10:56:20;;;;;;;8.87;2.63;;;;;;;16.66;77.96;100699.31;4853076;29;20215;-69
2023/08/07 10:59:30;;;;;;;7.20;2.20;;;;;;;16.72;77.99;100701.25;4839233;29;20322;-68
2023/08/07 11:02:04;;;;;;;5.90;2.20;;;;;;;16.73;77.97;100700.22;4853988;29;20222;-70
2023/08/07 11:05:30;;;;;;;7.60;2.40;;;;;;;16.81;79.10;100702.84;4838744;29;20604;-72
2023/08/07 11:19:52;;;;;;;6.03;2.50;;;;;;;17.01;82.33;100695.94;4765537;29;20912;-70
2023/08/07 11:23:15;;;;;;;6.47;2.17;;;;;;;17.06;82.53;100704.25;4765348;29;20306;-69
2023/08/07 11:26:59;;;;;;;5.63;2.23;;;;;;;17.12;81.91;100702.69;4852838;29;20233;-70
2023/08/07 11:34:14;;;;;;;7.03;2.23;;;;;;;17.17;83.20;100697.59;4766137;29;20309;-72
2023/08/07 11:48:30;;;;;;;3.37;1.80;;;;;;;17.24;72.11;100690.47;4769834;29;20273;-72
2023/08/07 11:51:01;;;;;;;5.53;1.70;;;;;;;17.25;71.96;100692.13;4801601;29;20214;-71
2023/08/07 11:53:35;;;;;;;7.73;1.80;;;;;;;17.32;70.46;100687.72;4869320;29;20990;-70
2023/08/07 11:56:09;;;;;;;3.00;1.40;;;;;;;17.36;70.81;100686.31;4873174;29;20210;-70
2023/08/07 11:58:38;;;;;;;2.73;1.60;;;;;;;17.39;70.44;100688.63;4871508;29;20308;-70
2023/08/07 12:01:10;;;;;;;6.30;2.20;;;;;;;17.44;71.60;100688.88;4871922;29;20209;-69
2023/08/07 12:03:40;;;;;;;5.27;1.83;;;;;;;17.48;72.67;100682.13;4865930;29;20301;-69
2023/08/07 12:06:10;;;;;;;5.43;1.93;;;;;;;17.56;73.14;100678.50;4870509;29;20297;-72
2023/08/07 12:08:44;;;;;;;3.93;1.50;;;;;;;17.60;72.77;100674.41;4868043;29;20249;-71
2023/08/07 12:11:13;;;;;;;4.13;1.70;;;;;;;17.68;70.74;100669.81;4867514;29;20716;-66
2023/08/07 12:13:43;;;;;;;7.20;2.40;;;;;;;17.79;70.16;100675.69;4868931;29;20222;-71
2023/08/07 12:16:15;;;;;;;4.10;1.70;;;;;;;17.86;70.46;100676.59;4869945;29;20220;-71
2023/08/07 12:18:45;;;;;;;3.83;1.93;;;;;;;17.98;70.13;100675.06;4869539;29;20210;-72
2023/08/07 12:21:20;;;;;;;3.93;2.33;;;;;;;18.04;69.80;100677.81;4868690;29;20226;-67
2023/08/07 12:23:53;;;;;;;3.70;1.80;;;;;;;18.09;67.61;100666.53;4867648;29;20205;-70
2023/08/07 12:26:21;;;;;;;6.97;1.90;;;;;;;18.12;61.42;100668.00;4868333;29;20262;-70
2023/08/07 12:28:49;;;;;;;4.53;1.63;;;;;;;18.20;60.85;100676.75;4866869;29;20321;-71
2023/08/07 12:31:18;;;;;;;4.20;2.03;;;;;;;18.28;61.82;100673.94;4867611;29;20210;-71
2023/08/07 12:33:47;;;;;;;7.77;3.27;;;;;;;18.33;60.49;100676.84;4867901;29;20242;-71
2023/08/07 12:36:16;;;;;;;4.97;1.60;;;;;;;18.41;60.24;100670.50;4869357;29;20325;-70
2023/08/07 12:38:56;;;;;;;4.97;1.47;;;;;;;18.49;57.96;100670.38;4868561;29;20210;-67
2023/08/07 12:41:34;;;;;;;5.57;1.50;;;;;;;18.51;55.59;100665.63;4870191;29;20660;-68
2023/08/07 12:44:06;;;;;;;3.90;1.30;;;;;;;18.59;58.08;100670.06;4870894;29;20210;-70
2023/08/07 12:46:39;;;;;;;2.27;1.20;;;;;;;18.67;57.57;100672.59;4872769;29;20214;-72
2023/08/07 12:49:36;;;;;;;2.50;1.37;;;;;;;18.73;54.45;100663.78;4871670;29;20273;-69
2023/08/07 12:52:19;;;;;;;6.40;2.50;;;;;;;18.82;54.82;100670.66;4862500;29;20261;-70
2023/08/07 12:54:51;;;;;;;11.20;2.37;;;;;;;18.90;52.32;100673.19;4871063;29;20252;-71
2023/08/07 12:57:29;;;;;;;4.07;1.63;;;;;;;19.02;52.88;100671.59;4869865;29;20210;-68
2023/08/07 13:00:00;;;;;;;6.00;1.80;;;;;;;19.05;49.78;100668.50;4871744;29;20214;-70
2023/08/07 13:02:52;;;;;;;5.23;2.10;;;;;;;19.09;50.14;100669.75;4869267;29;20214;-70
2023/08/07 13:05:22;;;;;;;7.70;1.80;;;;;;;19.17;50.08;100668.78;4871084;29;20267;-69
2023/08/07 13:07:58;;;;;;;3.77;1.60;;;;;;;19.24;50.75;100664.28;4871661;29;20241;-72
2023/08/07 13:10:31;;;;;;;3.87;2.00;;;;;;;19.30;50.09;100662.63;4874538;29;20244;-71
2023/08/07 13:13:12;;;;;;;4.80;1.93;;;;;;;19.36;47.52;100656.44;4872970;29;20214;-70
2023/08/07 13:15:44;;;;;;;4.90;1.70;;;;;;;19.44;47.42;100659.78;4872381;29;20680;-73
2023/08/07 13:18:20;;;;;;;3.73;1.73;;;;;;;19.52;48.87;100665.03;4872138;29;20210;-70
2023/08/07 13:20:51;;;;;;;4.03;1.90;;;;;;;19.56;50.27;100660.06;4872620;29;20206;-71
2023/08/07 13:23:19;;;;;;;2.73;1.50;;;;;;;19.54;49.28;100656.75;4870490;29;21521;-72
2023/08/07 13:25:49;;;;;;;5.73;2.77;;;;;;;19.56;48.35;100673.53;4871932;29;20221;-71
2023/08/07 13:28:20;;;;;;;5.17;1.90;;;;;;;19.58;48.20;100667.94;4871755;29;20302;-69
2023/08/07 13:30:51;;;;;;;4.30;1.90;;;;;;;19.57;46.81;100667.13;4873094;29;20241;-71
2023/08/07 13:33:20;;;;;;;4.93;1.90;;;;;;;19.68;46.49;100666.53;4869585;29;20585;-71
2023/08/07 13:35:51;;;;;;;3.40;1.40;;;;;;;19.82;47.12;100656.63;4870067;29;20302;-70
2023/08/07 13:38:19;;;;;;;3.80;1.70;;;;;;;19.94;46.81;100656.88;4870990;29;20222;-71
2023/08/07 13:40:50;;;;;;;3.27;1.50;;;;;;;20.09;46.15;100657.50;4870219;29;20226;-68
2023/08/07 13:43:19;;;;;;;3.90;1.83;;;;;;;20.09;46.59;100663.72;4868621;29;20948;-70
2023/08/07 13:45:50;;;;;;;4.17;1.40;;;;;;;20.12;46.12;100659.78;4869113;29;20572;-68
2023/08/07 13:48:19;;;;;;;2.23;1.10;;;;;;;20.13;46.16;100667.66;4872293;29;20771;-73
2023/08/07 13:50:47;;;;;;;2.67;1.40;;;;;;;20.14;46.12;100666.59;4874175;29;20237;-68
2023/08/07 13:53:16;;;;;;;3.30;1.70;;;;;;;20.07;44.97;100665.78;4872702;29;20209;-68
2023/08/07 13:55:45;;;;;;;7.83;2.40;;;;;;;20.04;45.70;100670.75;4876545;29;20242;-71
2023/08/07 13:58:16;;;;;;;6.07;3.20;;;;;;;20.02;46.57;100670.97;4869483;29;20207;-71
2023/08/07 14:00:48;;;;;;;3.93;1.93;;;;;;;19.92;46.08;100674.03;4871827;29;20242;-69
2023/08/07 14:03:20;;;;;;;6.37;1.80;;;;;;;19.86;45.05;100679.41;4872020;29;20305;-70
2023/08/07 14:05:49;;;;;;;4.87;1.63;;;;;;;19.85;45.20;100678.59;4870540;29;20327;-70
2023/08/07 14:08:18;;;;;;;4.77;2.10;;;;;;;19.85;46.47;100681.28;4874703;29;20241;-72
2023/08/07 14:10:46;;;;;;;5.57;1.90;;;;;;;19.88;46.00;100677.31;4875343;29;20260;-71
2023/08/07 14:13:17;;;;;;;3.23;1.60;;;;;;;19.91;45.90;100682.31;4873704;29;20234;-71
2023/08/07 14:15:45;;;;;;;4.67;1.87;;;;;;;19.94;45.87;100681.09;4873723;29;20217;-72
2023/08/07 14:18:15;;;;;;;4.17;1.97;;;;;;;19.94;46.15;100691.84;4872804;29;20234;-71
2023/08/07 14:20:56;;;;;;;4.80;1.80;;;;;;;19.91;46.61;100682.31;4873841;29;20257;-71
2023/08/07 14:23:30;;;;;;;3.67;1.73;;;;;;;19.87;45.64;100691.84;4874813;29;20221;-71
2023/08/07 14:26:20;;;;;;;2.97;1.53;;;;;;;19.98;45.99;100679.63;4874328;29;20229;-70
2023/08/07 14:28:52;;;;;;;4.07;1.93;;;;;;;20.11;45.92;100687.75;4876549;29;20304;-73
2023/08/07 14:31:35;;;;;;;5.47;1.67;;;;;;;20.14;44.75;100688.16;4873540;29;20222;-70
2023/08/07 14:34:07;;;;;;;4.87;1.73;;;;;;;20.15;45.06;100678.19;4870848;29;20212;-67
2023/08/07 14:36:37;;;;;;;5.77;1.90;;;;;;;20.19;45.25;100677.59;4871296;29;20321;-70
2023/08/07 14:39:06;;;;;;;7.33;2.77;;;;;;;20.19;45.24;100674.91;4870197;29;20217;-71
2023/08/07 14:41:43;;;;;;;5.97;1.60;;;;;;;20.23;45.58;100672.63;4870860;29;20634;-68
2023/08/07 14:44:13;;;;;;;4.77;1.93;;;;;;;20.19;45.68;100672.22;4869850;29;20236;-72
2023/08/07 14:46:42;;;;;;;6.80;1.70;;;;;;;20.18;44.75;100678.63;4869047;29;20253;-72
2023/08/07 14:49:11;;;;;;;5.60;2.07;;;;;;;20.09;44.23;100674.47;4870146;29;20836;-69
2023/08/07 14:51:49;;;;;;;3.90;1.77;;;;;;;20.13;44.36;100674.91;4871003;29;20657;-71
2023/08/07 14:54:17;;;;;;;7.07;3.57;;;;;;;20.19;44.31;100664.13;4867153;29;20217;-72
2023/08/07 14:56:45;;;;;;;6.23;2.40;;;;;;;20.23;44.31;100659.16;4871570;29;20222;-68
2023/08/07 14:59:15;;;;;;;5.63;1.83;;;;;;;20.26;43.61;100674.91;4868335;29;20664;-72
2023/08/07 15:01:43;;;;;;;5.77;1.87;;;;;;;20.30;44.57;100657.31;4870435;29;20675;-63
2023/08/07 15:04:12;;;;;;;4.63;1.70;;;;;;;20.33;44.40;100658.75;4869164;29;20217;-72
2023/08/07 15:06:42;;;;;;;5.60;2.23;;;;;;;20.35;44.17;100665.63;4871228;29;20251;-68
2023/08/07 15:09:10;;;;;;;4.50;1.90;;;;;;;20.42;43.56;100668.31;4871306;29;20267;-69
2023/08/07 15:11:45;;;;;;;4.63;1.87;;;;;;;20.41;43.87;100670.16;4871702;29;20230;-69
2023/08/07 15:14:15;;;;;;;2.87;1.73;;;;;;;20.45;43.20;100663.34;4869783;29;20210;-73
2023/08/07 15:16:46;;;;;;;5.73;2.20;;;;;;;20.45;42.73;100665.22;4871599;29;20225;-69
2023/08/07 15:19:14;;;;;;;4.87;1.90;;;;;;;20.47;42.84;100682.00;4869633;29;20344;-74
2023/08/07 15:21:45;;;;;;;4.27;2.03;;;;;;;20.51;42.68;100672.44;4869744;29;20217;-72
2023/08/07 15:24:18;;;;;;;6.40;2.40;;;;;;;20.55;42.79;100673.72;4868798;29;20214;-70
2023/08/07 15:26:47;;;;;;;4.30;1.83;;;;;;;20.57;43.12;100667.09;4871402;29;20462;-69
2023/08/07 15:29:16;;;;;;;5.53;2.80;;;;;;;20.57;42.41;100663.56;4868775;29;20599;-69
2023/08/07 15:31:57;;;;;;;4.37;2.33;;;;;;;20.52;41.99;100671.41;4870972;29;20225;-73
2023/08/07 15:34:36;;;;;;;4.60;2.03;;;;;;;20.51;42.49;100670.59;4870129;29;20236;-73
2023/08/07 15:37:27;;;;;;;4.00;1.90;;;;;;;20.47;42.26;100669.38;4869326;29;20222;-73
2023/08/07 15:39:56;;;;;;;5.47;2.37;;;;;;;20.48;42.30;100673.72;4870800;29;20209;-70
2023/08/07 15:42:25;;;;;;;6.63;3.10;;;;;;;20.50;42.17;100663.53;4867952;29;20210;-68
2023/08/07 15:44:57;;;;;;;3.67;1.80;;;;;;;20.50;41.61;100674.31;4870377;29;20222;-69
2023/08/07 15:47:25;;;;;;;4.77;1.90;;;;;;;20.50;41.49;100666.22;4868522;29;20218;-72
2023/08/07 15:49:54;;;;;;;6.20;2.50;;;;;;;20.52;42.38;100661.47;4869720;29;20293;-72
2023/08/07 15:52:35;;;;;;;6.33;2.03;;;;;;;20.51;42.07;100659.81;4868865;29;20249;-72
2023/08/07 15:55:10;;;;;;;3.40;1.53;;;;;;;20.50;42.02;100663.53;4868773;29;20206;-69
2023/08/07 15:57:48;;;;;;;6.47;2.20;;;;;;;20.52;42.49;100669.56;4869617;29;20254;-68
2023/08/07 16:00:43;;;;;;;6.30;2.00;;;;;;;20.47;41.57;100665.84;4867408;29;20746;-65
2023/08/07 16:03:27;;;;;;;5.43;1.90;;;;;;;20.47;41.95;100660.44;4867967;29;20217;-66
2023/08/07 16:05:58;;;;;;;3.13;1.67;;;;;;;20.48;42.15;100662.94;4870262;29;20218;-72
2023/08/07 16:08:36;;;;;;;3.27;1.60;;;;;;;20.52;42.66;100664.16;4871375;29;20233;-70
2023/08/07 16:11:09;;;;;;;5.63;1.97;;;;;;;20.54;42.93;100662.09;4869512;29;20241;-72
2023/08/07 16:16:39;;;;;;;4.87;1.73;;;;;;;20.54;41.57;100666.66;4866749;29;20216;-66
2023/08/07 16:19:08;;;;;;;5.83;1.67;;;;;;;20.52;41.44;100663.34;4865733;29;20205;-69
2023/08/07 16:21:36;;;;;;;3.20;1.50;;;;;;;20.50;41.02;100666.22;4867281;29;20247;-68
2023/08/07 16:24:07;;;;;;;3.87;1.80;;;;;;;20.53;41.70;100673.06;4866225;29;20218;-69
2023/08/07 16:26:39;;;;;;;3.43;1.87;;;;;;;20.50;41.58;100666.22;4866334;29;20214;-70
2023/08/07 16:29:12;;;;;;;2.90;1.30;;;;;;;20.47;41.12;100663.16;4870979;29;20206;-65
2023/08/07 16:31:41;;;;;;;3.00;1.50;;;;;;;20.46;41.35;100669.56;4870786;29;20294;-71
2023/08/07 16:34:16;;;;;;;5.03;1.53;;;;;;;20.45;41.46;100663.34;4870147;29;20864;-72
2023/08/07 16:36:44;;;;;;;4.20;1.93;;;;;;;20.48;41.21;100654.03;4871520;29;20306;-72
2023/08/07 16:42:37;;;;;;;4.50;1.97;;;;;;;20.46;40.08;100656.09;4876653;29;20202;-71
2023/08/07 16:45:11;;;;;;;4.37;1.97;;;;;;;20.47;40.28;100653.19;4876417;29;20214;-71
2023/08/07 16:47:56;;;;;;;3.30;1.43;;;;;;;20.45;40.58;100652.56;4875967;29;20785;-72
2023/08/07 16:50:52;;;;;;;3.73;1.40;;;;;;;20.49;40.90;100653.81;4877286;29;20202;-68
2023/08/07 16:53:35;;;;;;;2.90;1.77;;;;;;;20.48;41.03;100652.16;4875045;29;20228;-70
2023/08/07 17:02:58;;;;;;;3.80;1.40;;;;;;;20.57;40.84;100661.69;4780479;29;20567;-69
2023/08/07 17:05:35;;;;;;;6.07;1.43;;;;;;;20.58;40.78;100663.31;4874986;29;20206;-71
2023/08/07 17:11:10;;;;;;;4.37;2.20;;;;;;;20.63;40.70;100666.25;4860975;29;20297;-65
2023/08/07 17:13:39;;;;;;;3.33;1.63;;;;;;;20.61;40.82;100668.31;4875821;29;20569;-64
2023/08/07 17:16:14;;;;;;;2.70;1.33;;;;;;;20.55;41.03;100669.16;4873578;29;20266;-65
2023/08/07 17:18:51;;;;;;;5.17;1.60;;;;;;;20.49;41.25;100669.97;4876090;29;20210;-65
2023/08/07 17:22:04;;;;;;;2.07;1.20;;;;;;;20.42;41.69;100669.13;4874171;29;20613;-63
2023/08/07 17:32:02;;;;;;;4.57;2.10;;;;;;;20.21;43.03;100677.41;4856476;29;20849;-65
2023/08/07 17:34:57;;;;;;;3.63;1.93;;;;;;;20.20;42.65;100667.66;4874319;29;20218;-64
2023/08/07 17:37:43;;;;;;;4.27;1.70;;;;;;;20.17;43.40;100676.16;4871549;29;20222;-64
2023/08/07 17:46:41;;;;;;;4.10;1.47;;;;;;;20.18;43.79;100677.81;4874073;29;20358;-69
2023/08/07 17:49:09;;;;;;;6.97;2.00;;;;;;;20.18;43.23;100677.81;4875159;29;20349;-65
2023/08/07 17:51:46;;;;;;;4.23;2.00;;;;;;;20.17;43.45;100682.34;4874770;29;20242;-65
2023/08/07 17:54:25;;;;;;;;;;;;;;;;;;;;;
2023/08/07 17:57:29;;;;;;;6.27;1.73;;;;;;;20.12;43.99;100681.31;4782448;29;20232;-64
2023/08/07 18:00:21;;;;;;;3.50;1.70;;;;;;;20.10;44.06;100686.09;4874558;29;20210;-65
2023/08/07 18:03:07;;;;;;;2.40;1.53;;;;;;;20.10;44.33;100691.47;4873535;29;20210;-64
2023/08/07 18:05:38;;;;;;;3.40;1.40;;;;;;;20.10;44.20;100691.47;4874873;29;20214;-66
2023/08/07 18:08:08;;;;;;;3.90;1.50;;;;;;;20.08;43.84;100682.75;4875468;29;20293;-66
2023/08/07 18:10:36;;;;;;;4.50;1.50;;;;;;;20.03;44.18;100690.63;4874552;29;20221;-65
2023/08/07 18:13:08;;;;;;;3.83;2.10;;;;;;;20.01;44.42;100690.00;4872820;29;20230;-65
2023/08/07 18:15:39;;;;;;;3.77;1.30;;;;;;;20.02;44.80;100686.28;4873156;29;20221;-66
2023/08/07 18:18:13;;;;;;;3.93;1.60;;;;;;;19.95;45.36;100693.50;4875907;29;20206;-65
2023/08/07 18:20:45;;;;;;;3.17;1.60;;;;;;;19.94;45.32;100689.16;4872902;29;20222;-64
2023/08/07 18:23:28;;;;;;;4.80;1.63;;;;;;;19.92;44.95;100690.19;4870002;29;20214;-65
2023/08/07 18:25:58;;;;;;;3.50;1.50;;;;;;;19.91;45.26;100693.91;4874243;29;20211;-66
2023/08/07 18:28:26;;;;;;;3.73;1.50;;;;;;;19.88;46.20;100688.09;4873989;29;20344;-65
2023/08/07 18:30:58;;;;;;;4.23;1.70;;;;;;;19.88;47.19;100694.31;4870789;29;21178;-65